sensor_id;sensor_type;location;lat;lon;timestamp;temperature;humidity
314;DHT22;143;51.634;7.112;2023-02-11T00:01:10;7.10;1.00
314;DHT22;143;51.634;7.112;2023-02-11T00:03:38;7.10;1.00
314;DHT22;143;51.634;7.112;2023-02-11T00:06:06;7.00;1.00
314;DHT22;143;51.634;7.112;2023-02-11T00:08:34;6.90;1.00
314;DHT22;143;51.634;7.112;2023-02-11T00:11:00;6.90;1.00
314;DHT22;143;51.634;7.112;2023-02-11T00:13:26;7.00;1.00
314;DHT22;143;51.634;7.112;2023-02-11T00:15:53;7.10;1.00
314;DHT22;143;51.634;7.112;2023-02-11T00:18:19;7.10;1.00
314;DHT22;143;51.634;7.112;2023-02-11T00:20:45;7.10;1.00
314;DHT22;143;51.634;7.112;2023-02-11T00:23:11;7.00;1.00
314;DHT22;143;51.634;7.112;2023-02-11T00:25:41;7.10;1.00
314;DHT22;143;51.634;7.112;2023-02-11T00:28:08;7.10;1.00
314;DHT22;143;51.634;7.112;2023-02-11T00:30:34;7.10;1.00
314;DHT22;143;51.634;7.112;2023-02-11T00:33:00;7.00;1.00
314;DHT22;143;51.634;7.112;2023-02-11T00:35:26;7.00;1.00
314;DHT22;143;51.634;7.112;2023-02-11T00:37:52;6.90;1.00
314;DHT22;143;51.634;7.112;2023-02-11T00:40:18;7.00;1.00
314;DHT22;143;51.634;7.112;2023-02-11T00:42:44;7.10;1.00
314;DHT22;143;51.634;7.112;2023-02-11T00:45:10;7.10;1.00
314;DHT22;143;51.634;7.112;2023-02-11T00:47:36;7.10;1.00
314;DHT22;143;51.634;7.112;2023-02-11T00:50:02;7.10;1.00
314;DHT22;143;51.634;7.112;2023-02-11T00:52:30;7.10;1.00
314;DHT22;143;51.634;7.112;2023-02-11T00:54:56;7.10;1.00
314;DHT22;143;51.634;7.112;2023-02-11T00:57:22;7.10;1.00
314;DHT22;143;51.634;7.112;2023-02-11T00:59:47;7.00;1.00
314;DHT22;143;51.634;7.112;2023-02-11T01:02:13;7.10;1.00
314;DHT22;143;51.634;7.112;2023-02-11T01:04:39;7.10;1.00
314;DHT22;143;51.634;7.112;2023-02-11T01:07:04;7.10;1.00
314;DHT22;143;51.634;7.112;2023-02-11T01:09:30;7.00;1.00
314;DHT22;143;51.634;7.112;2023-02-11T01:11:56;6.90;1.00
314;DHT22;143;51.634;7.112;2023-02-11T01:14:22;7.00;1.00
314;DHT22;143;51.634;7.112;2023-02-11T01:16:47;7.10;1.00
314;DHT22;143;51.634;7.112;2023-02-11T01:19:13;7.10;1.00
314;DHT22;143;51.634;7.112;2023-02-11T01:21:39;7.10;1.00
314;DHT22;143;51.634;7.112;2023-02-11T01:24:04;7.10;1.00
314;DHT22;143;51.634;7.112;2023-02-11T01:26:30;7.00;1.00
314;DHT22;143;51.634;7.112;2023-02-11T01:28:56;7.00;1.00
314;DHT22;143;51.634;7.112;2023-02-11T01:31:24;6.90;1.00
314;DHT22;143;51.634;7.112;2023-02-11T01:33:50;6.90;1.00
314;DHT22;143;51.634;7.112;2023-02-11T01:36:15;7.10;1.00
314;DHT22;143;51.634;7.112;2023-02-11T01:38:41;7.10;1.00
314;DHT22;143;51.634;7.112;2023-02-11T01:41:11;7.00;1.00
314;DHT22;143;51.634;7.112;2023-02-11T01:43:44;6.90;1.00
314;DHT22;143;51.634;7.112;2023-02-11T01:46:35;7.00;1.00
314;DHT22;143;51.634;7.112;2023-02-11T01:49:06;6.90;1.00
314;DHT22;143;51.634;7.112;2023-02-11T01:51:40;7.00;1.00
314;DHT22;143;51.634;7.112;2023-02-11T01:54:09;7.00;1.00
314;DHT22;143;51.634;7.112;2023-02-11T01:56:57;6.90;1.00
314;DHT22;143;51.634;7.112;2023-02-11T02:02:51;7.00;1.00
314;DHT22;143;51.634;7.112;2023-02-11T02:10:42;6.90;1.00
314;DHT22;143;51.634;7.112;2023-02-11T02:13:09;7.10;1.00
314;DHT22;143;51.634;7.112;2023-02-11T02:15:36;7.00;1.00
314;DHT22;143;51.634;7.112;2023-02-11T02:39:56;7.10;1.00
314;DHT22;143;51.634;7.112;2023-02-11T02:42:24;7.00;1.00
314;DHT22;143;51.634;7.112;2023-02-11T02:44:52;7.10;1.00
314;DHT22;143;51.634;7.112;2023-02-11T02:47:18;7.00;1.00
314;DHT22;143;51.634;7.112;2023-02-11T02:49:43;6.90;1.00
314;DHT22;143;51.634;7.112;2023-02-11T02:52:15;7.00;1.00
314;DHT22;143;51.634;7.112;2023-02-11T02:58:10;7.00;1.00
314;DHT22;143;51.634;7.112;2023-02-11T03:00:54;7.00;1.00
314;DHT22;143;51.634;7.112;2023-02-11T03:06:47;7.00;1.00
314;DHT22;143;51.634;7.112;2023-02-11T03:09:23;6.80;1.00
314;DHT22;143;51.634;7.112;2023-02-11T03:11:50;7.00;1.00
314;DHT22;143;51.634;7.112;2023-02-11T03:14:17;7.00;1.00
314;DHT22;143;51.634;7.112;2023-02-11T03:16:45;6.80;1.00
314;DHT22;143;51.634;7.112;2023-02-11T03:19:20;6.90;1.00
314;DHT22;143;51.634;7.112;2023-02-11T03:21:49;7.00;1.00
314;DHT22;143;51.634;7.112;2023-02-11T03:24:23;6.80;1.00
314;DHT22;143;51.634;7.112;2023-02-11T03:26:56;7.10;1.00
314;DHT22;143;51.634;7.112;2023-02-11T03:34:35;7.00;1.00
314;DHT22;143;51.634;7.112;2023-02-11T03:37:13;6.80;1.00
314;DHT22;143;51.634;7.112;2023-02-11T03:39:59;7.00;1.00
314;DHT22;143;51.634;7.112;2023-02-11T03:42:30;6.80;1.00
314;DHT22;143;51.634;7.112;2023-02-11T03:45:03;6.80;1.00
314;DHT22;143;51.634;7.112;2023-02-11T03:47:31;6.70;1.00
314;DHT22;143;51.634;7.112;2023-02-11T03:50:02;6.80;1.00
314;DHT22;143;51.634;7.112;2023-02-11T03:52:29;6.50;1.00
314;DHT22;143;51.634;7.112;2023-02-11T03:54:57;6.80;1.00
314;DHT22;143;51.634;7.112;2023-02-11T03:57:24;6.70;1.00
314;DHT22;143;51.634;7.112;2023-02-11T03:59:53;6.70;1.00
314;DHT22;143;51.634;7.112;2023-02-11T04:02:20;6.80;1.00
314;DHT22;143;51.634;7.112;2023-02-11T04:04:46;6.70;1.00
314;DHT22;143;51.634;7.112;2023-02-11T04:07:12;6.50;1.00
314;DHT22;143;51.634;7.112;2023-02-11T04:09:38;6.40;1.00
314;DHT22;143;51.634;7.112;2023-02-11T04:12:04;6.40;1.00
314;DHT22;143;51.634;7.112;2023-02-11T04:14:29;6.40;1.00
314;DHT22;143;51.634;7.112;2023-02-11T04:16:55;6.20;1.00
314;DHT22;143;51.634;7.112;2023-02-11T04:19:21;6.30;1.00
314;DHT22;143;51.634;7.112;2023-02-11T04:21:46;6.50;1.00
314;DHT22;143;51.634;7.112;2023-02-11T04:24:12;6.30;1.00
314;DHT22;143;51.634;7.112;2023-02-11T04:26:38;6.30;1.00
314;DHT22;143;51.634;7.112;2023-02-11T04:29:03;6.70;1.00
314;DHT22;143;51.634;7.112;2023-02-11T04:31:29;6.30;1.00
314;DHT22;143;51.634;7.112;2023-02-11T04:33:55;6.50;1.00
314;DHT22;143;51.634;7.112;2023-02-11T04:36:21;6.30;1.00
314;DHT22;143;51.634;7.112;2023-02-11T04:38:47;6.60;1.00
314;DHT22;143;51.634;7.112;2023-02-11T04:41:13;6.50;1.00
314;DHT22;143;51.634;7.112;2023-02-11T04:43:38;6.40;1.00
314;DHT22;143;51.634;7.112;2023-02-11T04:46:04;6.40;1.00
314;DHT22;143;51.634;7.112;2023-02-11T04:48:30;6.70;1.00
314;DHT22;143;51.634;7.112;2023-02-11T04:50:56;6.70;1.00
314;DHT22;143;51.634;7.112;2023-02-11T04:53:21;6.70;1.00
314;DHT22;143;51.634;7.112;2023-02-11T04:55:48;6.80;1.00
314;DHT22;143;51.634;7.112;2023-02-11T04:58:15;6.30;1.00
314;DHT22;143;51.634;7.112;2023-02-11T05:00:41;6.70;1.00
314;DHT22;143;51.634;7.112;2023-02-11T05:03:06;6.50;1.00
314;DHT22;143;51.634;7.112;2023-02-11T05:05:32;6.20;1.00
314;DHT22;143;51.634;7.112;2023-02-11T05:07:58;6.70;1.00
314;DHT22;143;51.634;7.112;2023-02-11T05:10:23;6.70;1.00
314;DHT22;143;51.634;7.112;2023-02-11T05:12:49;6.30;1.00
314;DHT22;143;51.634;7.112;2023-02-11T05:15:15;6.70;1.00
314;DHT22;143;51.634;7.112;2023-02-11T05:17:40;6.20;1.00
314;DHT22;143;51.634;7.112;2023-02-11T05:20:07;6.50;1.00
314;DHT22;143;51.634;7.112;2023-02-11T05:22:32;6.30;1.00
314;DHT22;143;51.634;7.112;2023-02-11T05:24:58;6.50;1.00
314;DHT22;143;51.634;7.112;2023-02-11T05:27:24;6.30;1.00
314;DHT22;143;51.634;7.112;2023-02-11T05:29:49;6.20;1.00
314;DHT22;143;51.634;7.112;2023-02-11T05:32:15;6.50;1.00
314;DHT22;143;51.634;7.112;2023-02-11T05:34:41;6.20;1.00
314;DHT22;143;51.634;7.112;2023-02-11T05:37:09;6.20;1.00
314;DHT22;143;51.634;7.112;2023-02-11T05:39:35;6.40;1.00
314;DHT22;143;51.634;7.112;2023-02-11T05:42:00;6.20;1.00
314;DHT22;143;51.634;7.112;2023-02-11T05:44:26;6.20;1.00
314;DHT22;143;51.634;7.112;2023-02-11T05:46:52;6.40;1.00
314;DHT22;143;51.634;7.112;2023-02-11T05:49:17;6.20;1.00
314;DHT22;143;51.634;7.112;2023-02-11T05:51:43;6.40;1.00
314;DHT22;143;51.634;7.112;2023-02-11T05:54:09;6.20;1.00
314;DHT22;143;51.634;7.112;2023-02-11T05:56:35;6.20;1.00
314;DHT22;143;51.634;7.112;2023-02-11T05:59:00;6.50;1.00
314;DHT22;143;51.634;7.112;2023-02-11T06:01:26;6.30;1.00
314;DHT22;143;51.634;7.112;2023-02-11T06:03:52;6.20;1.00
314;DHT22;143;51.634;7.112;2023-02-11T06:06:19;6.50;1.00
314;DHT22;143;51.634;7.112;2023-02-11T06:08:45;6.20;1.00
314;DHT22;143;51.634;7.112;2023-02-11T06:11:12;6.40;1.00
314;DHT22;143;51.634;7.112;2023-02-11T06:13:39;6.20;1.00
314;DHT22;143;51.634;7.112;2023-02-11T06:16:05;6.50;1.00
314;DHT22;143;51.634;7.112;2023-02-11T06:18:31;6.40;1.00
314;DHT22;143;51.634;7.112;2023-02-11T06:20:58;6.20;1.00
314;DHT22;143;51.634;7.112;2023-02-11T06:23:24;6.50;1.00
314;DHT22;143;51.634;7.112;2023-02-11T06:25:50;6.40;1.00
314;DHT22;143;51.634;7.112;2023-02-11T06:28:16;6.20;1.00
314;DHT22;143;51.634;7.112;2023-02-11T06:30:42;6.60;1.00
314;DHT22;143;51.634;7.112;2023-02-11T06:33:08;6.70;1.00
314;DHT22;143;51.634;7.112;2023-02-11T06:35:34;6.60;1.00
314;DHT22;143;51.634;7.112;2023-02-11T06:38:01;6.60;1.00
314;DHT22;143;51.634;7.112;2023-02-11T06:40:26;6.40;1.00
314;DHT22;143;51.634;7.112;2023-02-11T06:42:52;6.30;1.00
314;DHT22;143;51.634;7.112;2023-02-11T06:45:18;6.50;1.00
314;DHT22;143;51.634;7.112;2023-02-11T06:47:45;6.70;1.00
314;DHT22;143;51.634;7.112;2023-02-11T06:50:12;6.70;1.00
314;DHT22;143;51.634;7.112;2023-02-11T06:52:39;6.20;1.00
314;DHT22;143;51.634;7.112;2023-02-11T06:55:05;6.70;1.00
314;DHT22;143;51.634;7.112;2023-02-11T06:57:31;6.70;1.00
314;DHT22;143;51.634;7.112;2023-02-11T06:59:57;6.20;1.00
314;DHT22;143;51.634;7.112;2023-02-11T07:02:22;6.30;1.00
314;DHT22;143;51.634;7.112;2023-02-11T07:04:48;6.60;1.00
314;DHT22;143;51.634;7.112;2023-02-11T07:07:14;6.50;1.00
314;DHT22;143;51.634;7.112;2023-02-11T07:09:40;6.50;1.00
314;DHT22;143;51.634;7.112;2023-02-11T07:12:08;6.20;1.00
314;DHT22;143;51.634;7.112;2023-02-11T07:14:34;6.70;1.00
314;DHT22;143;51.634;7.112;2023-02-11T07:17:00;6.50;1.00
314;DHT22;143;51.634;7.112;2023-02-11T07:19:25;6.20;1.00
314;DHT22;143;51.634;7.112;2023-02-11T07:21:51;6.30;1.00
314;DHT22;143;51.634;7.112;2023-02-11T07:24:17;6.70;1.00
314;DHT22;143;51.634;7.112;2023-02-11T07:26:42;6.30;1.00
314;DHT22;143;51.634;7.112;2023-02-11T07:29:09;6.60;1.00
314;DHT22;143;51.634;7.112;2023-02-11T07:31:34;6.60;1.00
314;DHT22;143;51.634;7.112;2023-02-11T07:34:01;6.70;1.00
314;DHT22;143;51.634;7.112;2023-02-11T07:36:28;6.70;1.00
314;DHT22;143;51.634;7.112;2023-02-11T07:38:54;6.70;1.00
314;DHT22;143;51.634;7.112;2023-02-11T07:41:21;6.70;1.00
314;DHT22;143;51.634;7.112;2023-02-11T07:43:47;6.50;1.00
314;DHT22;143;51.634;7.112;2023-02-11T07:46:24;6.50;1.00
314;DHT22;143;51.634;7.112;2023-02-11T07:48:50;6.50;1.00
314;DHT22;143;51.634;7.112;2023-02-11T07:51:19;6.70;1.00
314;DHT22;143;51.634;7.112;2023-02-11T07:53:46;6.50;1.00
314;DHT22;143;51.634;7.112;2023-02-11T07:56:13;6.50;1.00
314;DHT22;143;51.634;7.112;2023-02-11T07:58:39;6.50;1.00
314;DHT22;143;51.634;7.112;2023-02-11T08:01:08;6.50;1.00
314;DHT22;143;51.634;7.112;2023-02-11T08:03:35;6.80;1.00
314;DHT22;143;51.634;7.112;2023-02-11T08:06:06;6.80;1.00
314;DHT22;143;51.634;7.112;2023-02-11T08:08:32;6.70;1.00
314;DHT22;143;51.634;7.112;2023-02-11T08:10:58;6.50;1.00
314;DHT22;143;51.634;7.112;2023-02-11T08:13:23;6.80;1.00
314;DHT22;143;51.634;7.112;2023-02-11T08:15:51;6.70;1.00
314;DHT22;143;51.634;7.112;2023-02-11T08:18:17;6.80;1.00
314;DHT22;143;51.634;7.112;2023-02-11T08:20:42;6.80;1.00
314;DHT22;143;51.634;7.112;2023-02-11T08:23:09;6.80;1.00
314;DHT22;143;51.634;7.112;2023-02-11T08:25:34;6.80;1.00
314;DHT22;143;51.634;7.112;2023-02-11T08:28:00;6.80;1.00
314;DHT22;143;51.634;7.112;2023-02-11T08:30:26;6.80;1.00
314;DHT22;143;51.634;7.112;2023-02-11T08:32:52;6.70;1.00
314;DHT22;143;51.634;7.112;2023-02-11T08:35:17;6.80;1.00
314;DHT22;143;51.634;7.112;2023-02-11T08:37:43;6.80;1.00
314;DHT22;143;51.634;7.112;2023-02-11T08:40:09;6.50;1.00
314;DHT22;143;51.634;7.112;2023-02-11T08:42:34;6.70;1.00
314;DHT22;143;51.634;7.112;2023-02-11T08:45:00;6.60;1.00
314;DHT22;143;51.634;7.112;2023-02-11T08:47:27;6.60;1.00
314;DHT22;143;51.634;7.112;2023-02-11T08:49:56;6.90;1.00
314;DHT22;143;51.634;7.112;2023-02-11T08:52:22;6.70;1.00
314;DHT22;143;51.634;7.112;2023-02-11T08:54:48;6.90;1.00
314;DHT22;143;51.634;7.112;2023-02-11T08:57:13;7.00;1.00
314;DHT22;143;51.634;7.112;2023-02-11T08:59:40;7.10;1.00
314;DHT22;143;51.634;7.112;2023-02-11T09:02:08;7.10;1.00
314;DHT22;143;51.634;7.112;2023-02-11T09:04:35;7.10;1.00
314;DHT22;143;51.634;7.112;2023-02-11T09:07:00;7.10;1.00
314;DHT22;143;51.634;7.112;2023-02-11T09:09:26;7.10;1.00
314;DHT22;143;51.634;7.112;2023-02-11T09:11:52;7.00;1.00
314;DHT22;143;51.634;7.112;2023-02-11T09:14:22;7.00;1.00
314;DHT22;143;51.634;7.112;2023-02-11T09:16:49;7.00;1.00
314;DHT22;143;51.634;7.112;2023-02-11T09:19:16;7.10;1.00
314;DHT22;143;51.634;7.112;2023-02-11T09:21:42;7.10;1.00
314;DHT22;143;51.634;7.112;2023-02-11T09:24:09;7.10;1.00
314;DHT22;143;51.634;7.112;2023-02-11T09:26:35;7.10;1.00
314;DHT22;143;51.634;7.112;2023-02-11T09:29:02;7.10;1.00
314;DHT22;143;51.634;7.112;2023-02-11T09:31:30;7.10;1.00
314;DHT22;143;51.634;7.112;2023-02-11T09:33:58;7.10;1.00
314;DHT22;143;51.634;7.112;2023-02-11T09:36:28;7.00;1.00
314;DHT22;143;51.634;7.112;2023-02-11T09:38:55;7.10;1.00
314;DHT22;143;51.634;7.112;2023-02-11T09:43:58;7.30;1.00
314;DHT22;143;51.634;7.112;2023-02-11T09:46:31;7.10;1.00
314;DHT22;143;51.634;7.112;2023-02-11T09:48:58;7.20;1.00
314;DHT22;143;51.634;7.112;2023-02-11T09:56:45;7.30;1.00
314;DHT22;143;51.634;7.112;2023-02-11T09:59:15;7.40;1.00
314;DHT22;143;51.634;7.112;2023-02-11T10:02:04;7.30;1.00
314;DHT22;143;51.634;7.112;2023-02-11T10:07:29;7.40;1.00
314;DHT22;143;51.634;7.112;2023-02-11T10:23:29;7.40;1.00
314;DHT22;143;51.634;7.112;2023-02-11T10:25:57;7.40;1.00
314;DHT22;143;51.634;7.112;2023-02-11T10:28:34;7.50;1.00
314;DHT22;143;51.634;7.112;2023-02-11T10:31:04;7.70;1.00
314;DHT22;143;51.634;7.112;2023-02-11T10:34:00;7.60;1.00
314;DHT22;143;51.634;7.112;2023-02-11T10:36:31;7.90;1.00
314;DHT22;143;51.634;7.112;2023-02-11T10:41:39;7.40;1.00
314;DHT22;143;51.634;7.112;2023-02-11T10:44:37;7.80;1.00
314;DHT22;143;51.634;7.112;2023-02-11T10:47:08;7.40;1.00
314;DHT22;143;51.634;7.112;2023-02-11T10:49:43;7.70;1.00
314;DHT22;143;51.634;7.112;2023-02-11T10:52:26;7.60;1.00
314;DHT22;143;51.634;7.112;2023-02-11T10:57:26;7.90;1.00
314;DHT22;143;51.634;7.112;2023-02-11T10:59:59;8.00;1.00
314;DHT22;143;51.634;7.112;2023-02-11T11:02:34;8.00;1.00
314;DHT22;143;51.634;7.112;2023-02-11T11:05:25;7.90;1.00
314;DHT22;143;51.634;7.112;2023-02-11T11:08:06;8.10;1.00
314;DHT22;143;51.634;7.112;2023-02-11T11:10:47;8.10;1.00
314;DHT22;143;51.634;7.112;2023-02-11T11:18:41;8.20;1.00
314;DHT22;143;51.634;7.112;2023-02-11T11:21:25;8.00;1.00
314;DHT22;143;51.634;7.112;2023-02-11T11:24:00;7.90;1.00
314;DHT22;143;51.634;7.112;2023-02-11T11:26:51;8.30;1.00
314;DHT22;143;51.634;7.112;2023-02-11T11:29:42;8.30;1.00
314;DHT22;143;51.634;7.112;2023-02-11T11:32:24;8.30;1.00
314;DHT22;143;51.634;7.112;2023-02-11T11:34:52;8.30;1.00
314;DHT22;143;51.634;7.112;2023-02-11T11:37:21;8.10;1.00
314;DHT22;143;51.634;7.112;2023-02-11T11:40:09;8.30;1.00
314;DHT22;143;51.634;7.112;2023-02-11T11:42:37;8.20;1.00
314;DHT22;143;51.634;7.112;2023-02-11T11:45:23;8.30;1.00
314;DHT22;143;51.634;7.112;2023-02-11T11:48:03;8.20;1.00
314;DHT22;143;51.634;7.112;2023-02-11T11:51:01;8.10;1.00
314;DHT22;143;51.634;7.112;2023-02-11T11:53:51;8.10;1.00
314;DHT22;143;51.634;7.112;2023-02-11T11:56:25;8.20;1.00
314;DHT22;143;51.634;7.112;2023-02-11T11:58:51;8.20;1.00
314;DHT22;143;51.634;7.112;2023-02-11T12:01:44;8.20;1.00
314;DHT22;143;51.634;7.112;2023-02-11T12:12:37;8.30;1.00
314;DHT22;143;51.634;7.112;2023-02-11T12:20:18;8.30;1.00
314;DHT22;143;51.634;7.112;2023-02-11T12:23:02;8.30;1.00
314;DHT22;143;51.634;7.112;2023-02-11T12:28:43;8.20;1.00
314;DHT22;143;51.634;7.112;2023-02-11T12:37:13;8.30;1.00
314;DHT22;143;51.634;7.112;2023-02-11T12:42:29;8.60;1.00
314;DHT22;143;51.634;7.112;2023-02-11T12:45:30;8.50;1.00
314;DHT22;143;51.634;7.112;2023-02-11T12:51:05;8.40;1.00
314;DHT22;143;51.634;7.112;2023-02-11T13:02:02;8.70;1.00
314;DHT22;143;51.634;7.112;2023-02-11T13:04:39;8.70;1.00
314;DHT22;143;51.634;7.112;2023-02-11T13:07:16;8.50;1.00
314;DHT22;143;51.634;7.112;2023-02-11T13:12:45;8.60;1.00
314;DHT22;143;51.634;7.112;2023-02-11T13:15:29;8.90;1.00
314;DHT22;143;51.634;7.112;2023-02-11T13:20:42;9.10;1.00
314;DHT22;143;51.634;7.112;2023-02-11T13:23:26;8.90;1.00
314;DHT22;143;51.634;7.112;2023-02-11T13:26:28;8.80;1.00
314;DHT22;143;51.634;7.112;2023-02-11T13:31:41;8.90;1.00
314;DHT22;143;51.634;7.112;2023-02-11T13:37:30;9.00;1.00
314;DHT22;143;51.634;7.112;2023-02-11T13:40:20;9.20;1.00
314;DHT22;143;51.634;7.112;2023-02-11T13:45:40;8.80;1.00
314;DHT22;143;51.634;7.112;2023-02-11T13:50:58;9.40;1.00
314;DHT22;143;51.634;7.112;2023-02-11T13:53:24;9.50;1.00
314;DHT22;143;51.634;7.112;2023-02-11T13:56:04;9.60;1.00
314;DHT22;143;51.634;7.112;2023-02-11T13:58:35;9.60;1.00
314;DHT22;143;51.634;7.112;2023-02-11T14:01:05;9.50;1.00
314;DHT22;143;51.634;7.112;2023-02-11T14:03:36;9.50;1.00
314;DHT22;143;51.634;7.112;2023-02-11T14:06:24;9.70;1.00
314;DHT22;143;51.634;7.112;2023-02-11T14:14:18;9.60;1.00
314;DHT22;143;51.634;7.112;2023-02-11T14:19:35;9.40;1.00
314;DHT22;143;51.634;7.112;2023-02-11T14:25:01;9.70;1.00
314;DHT22;143;51.634;7.112;2023-02-11T14:27:41;9.60;1.00
314;DHT22;143;51.634;7.112;2023-02-11T14:30:47;9.40;1.00
314;DHT22;143;51.634;7.112;2023-02-11T14:38:30;9.30;1.00
314;DHT22;143;51.634;7.112;2023-02-11T14:43:54;9.60;1.00
314;DHT22;143;51.634;7.112;2023-02-11T14:46:23;9.50;1.00
314;DHT22;143;51.634;7.112;2023-02-11T14:48:52;9.40;1.00
314;DHT22;143;51.634;7.112;2023-02-11T14:51:39;9.40;1.00
314;DHT22;143;51.634;7.112;2023-02-11T14:54:20;9.20;1.00
314;DHT22;143;51.634;7.112;2023-02-11T14:57:05;9.50;1.00
314;DHT22;143;51.634;7.112;2023-02-11T14:59:32;9.60;1.00
314;DHT22;143;51.634;7.112;2023-02-11T15:01:57;9.60;1.00
314;DHT22;143;51.634;7.112;2023-02-11T15:04:28;9.50;1.00
314;DHT22;143;51.634;7.112;2023-02-11T15:06:55;9.50;1.00
314;DHT22;143;51.634;7.112;2023-02-11T15:09:43;9.60;1.00
314;DHT22;143;51.634;7.112;2023-02-11T15:12:25;9.80;1.00
314;DHT22;143;51.634;7.112;2023-02-11T15:14:56;9.90;1.00
314;DHT22;143;51.634;7.112;2023-02-11T15:17:26;9.60;1.00
314;DHT22;143;51.634;7.112;2023-02-11T15:19:55;9.90;1.00
314;DHT22;143;51.634;7.112;2023-02-11T15:22:28;9.70;1.00
314;DHT22;143;51.634;7.112;2023-02-11T15:25:16;9.90;1.00
314;DHT22;143;51.634;7.112;2023-02-11T15:27:52;9.90;1.00
314;DHT22;143;51.634;7.112;2023-02-11T15:32:48;10.00;1.00
314;DHT22;143;51.634;7.112;2023-02-11T15:35:15;9.70;1.00
314;DHT22;143;51.634;7.112;2023-02-11T15:37:42;9.70;1.00
314;DHT22;143;51.634;7.112;2023-02-11T15:40:17;9.90;1.00
314;DHT22;143;51.634;7.112;2023-02-11T15:45:20;9.90;1.00
314;DHT22;143;51.634;7.112;2023-02-11T15:47:56;10.00;1.00
314;DHT22;143;51.634;7.112;2023-02-11T15:50:29;10.00;1.00
314;DHT22;143;51.634;7.112;2023-02-11T15:52:58;10.10;1.00
314;DHT22;143;51.634;7.112;2023-02-11T15:55:25;10.10;1.00
314;DHT22;143;51.634;7.112;2023-02-11T15:57:57;9.90;1.00
314;DHT22;143;51.634;7.112;2023-02-11T16:00:25;10.10;1.00
314;DHT22;143;51.634;7.112;2023-02-11T16:02:57;10.00;1.00
314;DHT22;143;51.634;7.112;2023-02-11T16:05:29;10.10;1.00
314;DHT22;143;51.634;7.112;2023-02-11T16:07:56;9.80;1.00
314;DHT22;143;51.634;7.112;2023-02-11T16:10:32;9.60;1.00
314;DHT22;143;51.634;7.112;2023-02-11T16:15:36;9.70;1.00
314;DHT22;143;51.634;7.112;2023-02-11T16:18:38;9.70;1.00
314;DHT22;143;51.634;7.112;2023-02-11T16:21:14;9.60;1.00
314;DHT22;143;51.634;7.112;2023-02-11T16:23:41;9.80;1.00
314;DHT22;143;51.634;7.112;2023-02-11T16:26:32;9.70;1.00
314;DHT22;143;51.634;7.112;2023-02-11T16:29:24;9.60;1.00
314;DHT22;143;51.634;7.112;2023-02-11T16:31:52;9.90;1.00
314;DHT22;143;51.634;7.112;2023-02-11T16:34:21;9.70;1.00
314;DHT22;143;51.634;7.112;2023-02-11T16:36:48;9.70;1.00
314;DHT22;143;51.634;7.112;2023-02-11T16:39:16;9.70;1.00
314;DHT22;143;51.634;7.112;2023-02-11T16:41:43;9.60;1.00
314;DHT22;143;51.634;7.112;2023-02-11T16:44:09;9.70;1.00
314;DHT22;143;51.634;7.112;2023-02-11T16:46:35;9.70;1.00
314;DHT22;143;51.634;7.112;2023-02-11T16:49:19;9.60;1.00
314;DHT22;143;51.634;7.112;2023-02-11T16:51:48;9.70;1.00
314;DHT22;143;51.634;7.112;2023-02-11T16:54:16;9.70;1.00
314;DHT22;143;51.634;7.112;2023-02-11T16:56:43;9.80;1.00
314;DHT22;143;51.634;7.112;2023-02-11T16:59:09;9.60;1.00
314;DHT22;143;51.634;7.112;2023-02-11T17:01:36;9.60;1.00
314;DHT22;143;51.634;7.112;2023-02-11T17:04:03;9.70;1.00
314;DHT22;143;51.634;7.112;2023-02-11T17:06:30;9.70;1.00
314;DHT22;143;51.634;7.112;2023-02-11T17:08:55;9.20;1.00
314;DHT22;143;51.634;7.112;2023-02-11T17:11:21;9.40;1.00
314;DHT22;143;51.634;7.112;2023-02-11T17:13:47;9.40;1.00
314;DHT22;143;51.634;7.112;2023-02-11T17:16:19;9.30;1.00
314;DHT22;143;51.634;7.112;2023-02-11T17:18:45;9.40;1.00
314;DHT22;143;51.634;7.112;2023-02-11T17:21:11;9.20;1.00
314;DHT22;143;51.634;7.112;2023-02-11T17:23:37;9.20;1.00
314;DHT22;143;51.634;7.112;2023-02-11T17:26:03;9.40;1.00
314;DHT22;143;51.634;7.112;2023-02-11T17:28:29;9.30;1.00
314;DHT22;143;51.634;7.112;2023-02-11T17:30:55;9.30;1.00
314;DHT22;143;51.634;7.112;2023-02-11T17:33:20;9.30;1.00
314;DHT22;143;51.634;7.112;2023-02-11T17:35:46;9.20;1.00
314;DHT22;143;51.634;7.112;2023-02-11T17:38:12;9.30;1.00
314;DHT22;143;51.634;7.112;2023-02-11T17:40:37;9.20;1.00
314;DHT22;143;51.634;7.112;2023-02-11T17:43:03;9.10;1.00
314;DHT22;143;51.634;7.112;2023-02-11T17:45:29;9.30;1.00
314;DHT22;143;51.634;7.112;2023-02-11T17:47:54;9.10;1.00
314;DHT22;143;51.634;7.112;2023-02-11T17:50:20;9.30;1.00
314;DHT22;143;51.634;7.112;2023-02-11T17:52:46;9.10;1.00
314;DHT22;143;51.634;7.112;2023-02-11T17:55:11;9.30;1.00
314;DHT22;143;51.634;7.112;2023-02-11T17:57:37;9.30;1.00
314;DHT22;143;51.634;7.112;2023-02-11T18:00:04;9.40;1.00
314;DHT22;143;51.634;7.112;2023-02-11T18:02:30;9.00;1.00
314;DHT22;143;51.634;7.112;2023-02-11T18:04:55;9.20;1.00
314;DHT22;143;51.634;7.112;2023-02-11T18:07:23;9.50;1.00
314;DHT22;143;51.634;7.112;2023-02-11T18:09:49;9.40;1.00
314;DHT22;143;51.634;7.112;2023-02-11T18:12:15;9.30;1.00
314;DHT22;143;51.634;7.112;2023-02-11T18:14:50;9.30;1.00
314;DHT22;143;51.634;7.112;2023-02-11T18:17:15;9.10;1.00
314;DHT22;143;51.634;7.112;2023-02-11T18:19:41;9.20;1.00
314;DHT22;143;51.634;7.112;2023-02-11T18:22:07;9.30;1.00
314;DHT22;143;51.634;7.112;2023-02-11T18:24:34;9.30;1.00
314;DHT22;143;51.634;7.112;2023-02-11T18:26:59;9.20;1.00
314;DHT22;143;51.634;7.112;2023-02-11T18:29:25;9.00;1.00
314;DHT22;143;51.634;7.112;2023-02-11T18:31:54;9.20;1.00
314;DHT22;143;51.634;7.112;2023-02-11T18:34:21;9.30;1.00
314;DHT22;143;51.634;7.112;2023-02-11T18:36:47;9.10;1.00
314;DHT22;143;51.634;7.112;2023-02-11T18:39:13;9.20;1.00
314;DHT22;143;51.634;7.112;2023-02-11T18:41:39;8.90;1.00
314;DHT22;143;51.634;7.112;2023-02-11T18:44:06;8.90;1.00
314;DHT22;143;51.634;7.112;2023-02-11T18:46:32;9.10;1.00
314;DHT22;143;51.634;7.112;2023-02-11T18:48:58;9.10;1.00
314;DHT22;143;51.634;7.112;2023-02-11T18:51:24;9.20;1.00
314;DHT22;143;51.634;7.112;2023-02-11T18:53:50;9.20;1.00
314;DHT22;143;51.634;7.112;2023-02-11T18:56:21;9.20;1.00
314;DHT22;143;51.634;7.112;2023-02-11T18:58:48;9.20;1.00
314;DHT22;143;51.634;7.112;2023-02-11T19:01:18;9.10;1.00
314;DHT22;143;51.634;7.112;2023-02-11T19:03:45;9.30;1.00
314;DHT22;143;51.634;7.112;2023-02-11T19:06:21;9.30;1.00
314;DHT22;143;51.634;7.112;2023-02-11T19:08:50;9.10;1.00
314;DHT22;143;51.634;7.112;2023-02-11T19:11:16;9.10;1.00
314;DHT22;143;51.634;7.112;2023-02-11T19:13:43;9.20;1.00
314;DHT22;143;51.634;7.112;2023-02-11T19:16:09;9.30;1.00
314;DHT22;143;51.634;7.112;2023-02-11T19:18:35;9.10;1.00
314;DHT22;143;51.634;7.112;2023-02-11T19:21:08;9.20;1.00
314;DHT22;143;51.634;7.112;2023-02-11T19:23:35;9.30;1.00
314;DHT22;143;51.634;7.112;2023-02-11T19:26:01;9.30;1.00
314;DHT22;143;51.634;7.112;2023-02-11T19:28:33;9.40;1.00
314;DHT22;143;51.634;7.112;2023-02-11T19:31:08;9.30;1.00
314;DHT22;143;51.634;7.112;2023-02-11T19:33:33;9.30;1.00
314;DHT22;143;51.634;7.112;2023-02-11T19:36:06;9.40;1.00
314;DHT22;143;51.634;7.112;2023-02-11T19:38:32;9.60;1.00
314;DHT22;143;51.634;7.112;2023-02-11T19:40:58;9.30;1.00
314;DHT22;143;51.634;7.112;2023-02-11T19:43:23;9.30;1.00
314;DHT22;143;51.634;7.112;2023-02-11T19:45:50;9.10;1.00
314;DHT22;143;51.634;7.112;2023-02-11T19:48:18;9.20;1.00
314;DHT22;143;51.634;7.112;2023-02-11T19:50:44;9.20;1.00
314;DHT22;143;51.634;7.112;2023-02-11T19:53:09;9.20;1.00
314;DHT22;143;51.634;7.112;2023-02-11T19:55:35;9.20;1.00
314;DHT22;143;51.634;7.112;2023-02-11T19:58:01;9.20;1.00
314;DHT22;143;51.634;7.112;2023-02-11T20:00:26;9.20;1.00
314;DHT22;143;51.634;7.112;2023-02-11T20:02:52;9.20;1.00